Gary Chicago International Airport
KGYY : now visible

Airfield :











YOU CAN JOIN US ON...

 
LOGIN :

Register | Disclaimer

   EN    FR    IT 

 









Legend :    VFR   Marginal VFR   IFR   Intensive IFR   Very Intensive IFR
Visi :
Ceiling :
>= 8 km
>= 3000ft
5 to 8 km
1000 to 3000 ft
1500m to 5 km
500 to 1000 ft
800 to 1500m
200 to 500 ft
< 800m
< 200 ft
Symbols :   Thunderstorms  Fog  Heavy snow  Heavy precipitations  Wind > 20 kt






- Airport Elevation : 591 ft
- IATA code : GYY


KGYY - Gary Chicago International

CURRENT METAR :
  • 241745Z 03015KT 10SM CLR 17/08 A3021

EXPIRED METARs :
  • 241645Z 03009KT 10SM CLR 16/09 A3023
  • 241545Z 03009KT 10SM CLR 17/08 A3023

TAF KGYY
Valid from the 24 at 18:00 until the 25 at 18:00 UTC


241720Z 2418/2518 05011G17KT P6SM SCT070 BKN100
FM251200 09010G16KT P6SM BKN030
TEMPO 2512/2514 6SM -SHRA BKN015
FM251400 11013G20KT 4SM SHRA BKN007 OVC015
PROB30 2514/2518 2SM +RA BKN004 OVC007
KZAU FIR / North America



MET'MAP, your aeronautical weather chart ! - Copyright ORBIFLY December 2007 - Disclaimer

ORBIFLY MET'MAP TEAM :

Programming & Development : Alexandra Zaïnal
Original concept : Baudouin d'Aumeries
Technical & hardware support : Manuel Goepfert
Assistance : Marc-Olivier Méhu

Contact : metmap@orbifly.com




SOURCES & CREDITS :

   NOAA       Earth
Advisory